sensor_id;sensor_type;location;lat;lon;timestamp;temperature;humidity
53802;DHT22;39709;53.334;6.534;2023-05-07T00:02:06;13.40;1.00
53802;DHT22;39709;53.334;6.534;2023-05-07T00:04:33;13.30;1.00
53802;DHT22;39709;53.334;6.534;2023-05-07T00:07:02;13.20;1.00
53802;DHT22;39709;53.334;6.534;2023-05-07T00:09:28;13.20;1.00
53802;DHT22;39709;53.334;6.534;2023-05-07T00:11:54;13.30;1.00
53802;DHT22;39709;53.334;6.534;2023-05-07T00:14:19;13.30;1.00
53802;DHT22;39709;53.334;6.534;2023-05-07T00:16:45;13.30;1.00
53802;DHT22;39709;53.334;6.534;2023-05-07T00:19:11;13.20;1.00
53802;DHT22;39709;53.334;6.534;2023-05-07T00:21:37;13.20;1.00
53802;DHT22;39709;53.334;6.534;2023-05-07T00:24:03;13.10;1.00
53802;DHT22;39709;53.334;6.534;2023-05-07T00:26:28;13.10;1.00
53802;DHT22;39709;53.334;6.534;2023-05-07T00:28:54;13.00;1.00
53802;DHT22;39709;53.334;6.534;2023-05-07T00:31:20;12.90;1.00
53802;DHT22;39709;53.334;6.534;2023-05-07T00:33:45;13.00;1.00
53802;DHT22;39709;53.334;6.534;2023-05-07T00:36:12;13.00;1.00
53802;DHT22;39709;53.334;6.534;2023-05-07T00:38:37;13.20;1.00
53802;DHT22;39709;53.334;6.534;2023-05-07T00:41:03;13.00;1.00
53802;DHT22;39709;53.334;6.534;2023-05-07T00:43:29;12.90;1.00
53802;DHT22;39709;53.334;6.534;2023-05-07T00:45:55;12.90;1.00
53802;DHT22;39709;53.334;6.534;2023-05-07T00:48:21;12.80;1.00
53802;DHT22;39709;53.334;6.534;2023-05-07T00:50:47;12.60;1.00
53802;DHT22;39709;53.334;6.534;2023-05-07T00:53:13;12.60;1.00
53802;DHT22;39709;53.334;6.534;2023-05-07T00:55:39;12.50;1.00
53802;DHT22;39709;53.334;6.534;2023-05-07T00:58:06;12.60;1.00
53802;DHT22;39709;53.334;6.534;2023-05-07T01:00:32;12.50;1.00
53802;DHT22;39709;53.334;6.534;2023-05-07T01:02:58;12.60;1.00
53802;DHT22;39709;53.334;6.534;2023-05-07T01:05:24;12.60;1.00
53802;DHT22;39709;53.334;6.534;2023-05-07T01:07:52;12.80;1.00
53802;DHT22;39709;53.334;6.534;2023-05-07T01:10:18;12.80;1.00
53802;DHT22;39709;53.334;6.534;2023-05-07T01:12:45;12.60;1.00
53802;DHT22;39709;53.334;6.534;2023-05-07T01:15:12;12.50;1.00
53802;DHT22;39709;53.334;6.534;2023-05-07T01:17:40;12.60;1.00
53802;DHT22;39709;53.334;6.534;2023-05-07T01:20:07;12.50;1.00
53802;DHT22;39709;53.334;6.534;2023-05-07T01:22:34;12.50;1.00
53802;DHT22;39709;53.334;6.534;2023-05-07T01:25:02;12.50;1.00
53802;DHT22;39709;53.334;6.534;2023-05-07T01:27:28;12.40;1.00
53802;DHT22;39709;53.334;6.534;2023-05-07T01:29:54;12.40;1.40
53802;DHT22;39709;53.334;6.534;2023-05-07T01:32:32;12.50;1.00
53802;DHT22;39709;53.334;6.534;2023-05-07T01:35:00;12.50;1.00
53802;DHT22;39709;53.334;6.534;2023-05-07T01:37:26;12.30;4.40
53802;DHT22;39709;53.334;6.534;2023-05-07T01:39:52;12.20;24.40
53802;DHT22;39709;53.334;6.534;2023-05-07T01:42:19;12.30;12.50
53802;DHT22;39709;53.334;6.534;2023-05-07T01:44:45;12.30;17.00
53802;DHT22;39709;53.334;6.534;2023-05-07T01:47:12;12.30;23.10
53802;DHT22;39709;53.334;6.534;2023-05-07T01:49:39;12.40;17.30
53802;DHT22;39709;53.334;6.534;2023-05-07T01:52:05;12.30;20.80
53802;DHT22;39709;53.334;6.534;2023-05-07T01:54:31;12.10;36.50
53802;DHT22;39709;53.334;6.534;2023-05-07T01:56:57;12.10;53.10
53802;DHT22;39709;53.334;6.534;2023-05-07T01:59:22;12.00;69.90
53802;DHT22;39709;53.334;6.534;2023-05-07T02:01:48;12.00;75.10
53802;DHT22;39709;53.334;6.534;2023-05-07T02:04:14;12.00;71.60
53802;DHT22;39709;53.334;6.534;2023-05-07T02:06:40;12.00;75.90
53802;DHT22;39709;53.334;6.534;2023-05-07T02:09:05;11.90;73.40
53802;DHT22;39709;53.334;6.534;2023-05-07T02:11:31;12.00;74.30
53802;DHT22;39709;53.334;6.534;2023-05-07T02:13:57;12.10;69.40
53802;DHT22;39709;53.334;6.534;2023-05-07T02:16:22;12.10;60.50
53802;DHT22;39709;53.334;6.534;2023-05-07T02:18:49;11.90;79.70
53802;DHT22;39709;53.334;6.534;2023-05-07T02:21:14;11.90;71.40
53802;DHT22;39709;53.334;6.534;2023-05-07T02:23:40;11.90;77.20
53802;DHT22;39709;53.334;6.534;2023-05-07T02:26:06;11.80;97.60
53802;DHT22;39709;53.334;6.534;2023-05-07T02:28:31;11.70;99.90
53802;DHT22;39709;53.334;6.534;2023-05-07T02:30:57;11.80;94.20
53802;DHT22;39709;53.334;6.534;2023-05-07T02:33:26;12.00;75.20
53802;DHT22;39709;53.334;6.534;2023-05-07T02:35:51;12.10;60.90
53802;DHT22;39709;53.334;6.534;2023-05-07T02:38:17;12.10;50.80
53802;DHT22;39709;53.334;6.534;2023-05-07T02:40:43;12.10;54.00
53802;DHT22;39709;53.334;6.534;2023-05-07T02:43:09;11.90;75.40
53802;DHT22;39709;53.334;6.534;2023-05-07T02:45:35;11.80;86.50
53802;DHT22;39709;53.334;6.534;2023-05-07T02:48:03;11.80;90.00
53802;DHT22;39709;53.334;6.534;2023-05-07T02:50:29;11.90;79.50
53802;DHT22;39709;53.334;6.534;2023-05-07T02:52:55;11.60;99.90
53802;DHT22;39709;53.334;6.534;2023-05-07T02:55:21;11.50;99.90
53802;DHT22;39709;53.334;6.534;2023-05-07T02:57:47;11.50;99.90
53802;DHT22;39709;53.334;6.534;2023-05-07T03:00:17;11.50;99.90
53802;DHT22;39709;53.334;6.534;2023-05-07T03:02:44;11.50;99.90
53802;DHT22;39709;53.334;6.534;2023-05-07T03:05:11;11.50;99.90
53802;DHT22;39709;53.334;6.534;2023-05-07T03:07:38;11.40;99.90
53802;DHT22;39709;53.334;6.534;2023-05-07T03:10:04;11.30;99.90
53802;DHT22;39709;53.334;6.534;2023-05-07T03:12:30;11.40;99.90
53802;DHT22;39709;53.334;6.534;2023-05-07T03:14:56;11.40;99.90
53802;DHT22;39709;53.334;6.534;2023-05-07T03:17:22;11.20;99.90
53802;DHT22;39709;53.334;6.534;2023-05-07T03:19:48;11.30;99.90
53802;DHT22;39709;53.334;6.534;2023-05-07T03:22:14;11.40;99.90
53802;DHT22;39709;53.334;6.534;2023-05-07T03:24:40;11.40;99.90
53802;DHT22;39709;53.334;6.534;2023-05-07T03:27:05;11.40;99.90
53802;DHT22;39709;53.334;6.534;2023-05-07T03:29:31;11.00;99.90
53802;DHT22;39709;53.334;6.534;2023-05-07T03:31:56;11.00;99.90
53802;DHT22;39709;53.334;6.534;2023-05-07T03:34:22;11.00;99.90
53802;DHT22;39709;53.334;6.534;2023-05-07T03:36:48;10.90;99.90
53802;DHT22;39709;53.334;6.534;2023-05-07T03:39:14;10.80;99.90
53802;DHT22;39709;53.334;6.534;2023-05-07T03:41:40;11.00;99.90
53802;DHT22;39709;53.334;6.534;2023-05-07T03:44:05;11.00;99.90
53802;DHT22;39709;53.334;6.534;2023-05-07T03:46:31;10.90;99.90
53802;DHT22;39709;53.334;6.534;2023-05-07T03:48:58;10.80;99.90
53802;DHT22;39709;53.334;6.534;2023-05-07T03:51:24;10.90;99.90
53802;DHT22;39709;53.334;6.534;2023-05-07T03:53:50;11.00;99.90
53802;DHT22;39709;53.334;6.534;2023-05-07T03:56:19;11.00;99.90
53802;DHT22;39709;53.334;6.534;2023-05-07T03:58:45;11.00;99.90
53802;DHT22;39709;53.334;6.534;2023-05-07T04:01:11;11.00;99.90
53802;DHT22;39709;53.334;6.534;2023-05-07T04:03:38;11.00;99.90
53802;DHT22;39709;53.334;6.534;2023-05-07T04:06:04;11.00;99.90
53802;DHT22;39709;53.334;6.534;2023-05-07T04:08:30;11.00;99.90
53802;DHT22;39709;53.334;6.534;2023-05-07T04:10:56;11.00;99.90
53802;DHT22;39709;53.334;6.534;2023-05-07T04:13:22;11.20;99.90
53802;DHT22;39709;53.334;6.534;2023-05-07T04:15:48;11.20;99.90
53802;DHT22;39709;53.334;6.534;2023-05-07T04:18:15;11.40;99.90
53802;DHT22;39709;53.334;6.534;2023-05-07T04:20:41;11.50;99.90
53802;DHT22;39709;53.334;6.534;2023-05-07T04:23:07;11.20;99.90
53802;DHT22;39709;53.334;6.534;2023-05-07T04:25:33;10.90;99.90
53802;DHT22;39709;53.334;6.534;2023-05-07T04:27:59;10.90;99.90
53802;DHT22;39709;53.334;6.534;2023-05-07T04:30:25;10.60;99.90
53802;DHT22;39709;53.334;6.534;2023-05-07T04:32:51;10.80;99.90
53802;DHT22;39709;53.334;6.534;2023-05-07T04:35:18;10.70;99.90
53802;DHT22;39709;53.334;6.534;2023-05-07T04:37:44;10.80;99.90
53802;DHT22;39709;53.334;6.534;2023-05-07T04:40:10;10.60;99.90
53802;DHT22;39709;53.334;6.534;2023-05-07T04:42:35;10.50;99.90
53802;DHT22;39709;53.334;6.534;2023-05-07T04:45:02;10.70;99.90
53802;DHT22;39709;53.334;6.534;2023-05-07T04:47:27;10.70;99.90
53802;DHT22;39709;53.334;6.534;2023-05-07T04:49:53;10.60;99.90
53802;DHT22;39709;53.334;6.534;2023-05-07T04:52:19;10.90;99.90
53802;DHT22;39709;53.334;6.534;2023-05-07T04:54:44;11.00;99.90
53802;DHT22;39709;53.334;6.534;2023-05-07T04:57:10;11.00;99.90
53802;DHT22;39709;53.334;6.534;2023-05-07T04:59:36;10.90;99.90
53802;DHT22;39709;53.334;6.534;2023-05-07T05:02:02;10.80;99.90
53802;DHT22;39709;53.334;6.534;2023-05-07T05:04:29;10.90;99.90
53802;DHT22;39709;53.334;6.534;2023-05-07T05:06:55;11.00;99.90
53802;DHT22;39709;53.334;6.534;2023-05-07T05:09:21;10.70;99.90
53802;DHT22;39709;53.334;6.534;2023-05-07T05:11:46;10.60;99.90
53802;DHT22;39709;53.334;6.534;2023-05-07T05:14:12;11.00;99.90
53802;DHT22;39709;53.334;6.534;2023-05-07T05:16:38;11.10;99.90
53802;DHT22;39709;53.334;6.534;2023-05-07T05:19:03;11.00;99.90
53802;DHT22;39709;53.334;6.534;2023-05-07T05:21:30;10.80;99.90
53802;DHT22;39709;53.334;6.534;2023-05-07T05:23:56;10.90;99.90
53802;DHT22;39709;53.334;6.534;2023-05-07T05:26:21;11.10;99.90
53802;DHT22;39709;53.334;6.534;2023-05-07T05:28:47;11.10;99.90
53802;DHT22;39709;53.334;6.534;2023-05-07T05:31:13;11.20;99.90
53802;DHT22;39709;53.334;6.534;2023-05-07T05:33:39;11.30;99.90
53802;DHT22;39709;53.334;6.534;2023-05-07T05:36:06;11.30;99.90
53802;DHT22;39709;53.334;6.534;2023-05-07T05:38:34;11.30;99.90
53802;DHT22;39709;53.334;6.534;2023-05-07T05:41:00;11.20;99.90
53802;DHT22;39709;53.334;6.534;2023-05-07T05:43:25;11.00;99.90
53802;DHT22;39709;53.334;6.534;2023-05-07T05:45:51;11.00;99.90
53802;DHT22;39709;53.334;6.534;2023-05-07T05:48:16;11.00;99.90
53802;DHT22;39709;53.334;6.534;2023-05-07T05:50:42;11.20;99.90
53802;DHT22;39709;53.334;6.534;2023-05-07T05:53:08;11.00;99.90
53802;DHT22;39709;53.334;6.534;2023-05-07T05:55:34;11.00;99.90
53802;DHT22;39709;53.334;6.534;2023-05-07T05:58:03;10.90;99.90
53802;DHT22;39709;53.334;6.534;2023-05-07T06:00:29;10.60;99.90
53802;DHT22;39709;53.334;6.534;2023-05-07T06:02:55;10.80;99.90
53802;DHT22;39709;53.334;6.534;2023-05-07T06:05:20;10.80;99.90
53802;DHT22;39709;53.334;6.534;2023-05-07T06:07:46;10.90;99.90
53802;DHT22;39709;53.334;6.534;2023-05-07T06:10:12;11.00;99.90
53802;DHT22;39709;53.334;6.534;2023-05-07T06:12:37;11.00;99.90
53802;DHT22;39709;53.334;6.534;2023-05-07T06:15:04;11.20;99.90
53802;DHT22;39709;53.334;6.534;2023-05-07T06:17:29;11.10;99.90
53802;DHT22;39709;53.334;6.534;2023-05-07T06:19:55;11.20;99.90
53802;DHT22;39709;53.334;6.534;2023-05-07T06:22:21;11.30;99.90
53802;DHT22;39709;53.334;6.534;2023-05-07T06:24:47;11.20;99.90
53802;DHT22;39709;53.334;6.534;2023-05-07T06:27:12;11.10;99.90
53802;DHT22;39709;53.334;6.534;2023-05-07T06:29:38;11.30;99.90
53802;DHT22;39709;53.334;6.534;2023-05-07T06:32:12;11.50;99.90
53802;DHT22;39709;53.334;6.534;2023-05-07T06:34:38;11.40;99.90
53802;DHT22;39709;53.334;6.534;2023-05-07T06:37:04;11.50;99.90
53802;DHT22;39709;53.334;6.534;2023-05-07T06:39:31;11.40;99.90
53802;DHT22;39709;53.334;6.534;2023-05-07T06:41:57;11.60;99.90
53802;DHT22;39709;53.334;6.534;2023-05-07T06:44:22;11.50;99.90
53802;DHT22;39709;53.334;6.534;2023-05-07T06:46:48;11.10;99.90
53802;DHT22;39709;53.334;6.534;2023-05-07T06:49:14;11.20;99.90
53802;DHT22;39709;53.334;6.534;2023-05-07T06:51:40;11.50;99.90
53802;DHT22;39709;53.334;6.534;2023-05-07T06:54:06;11.60;99.90
53802;DHT22;39709;53.334;6.534;2023-05-07T06:56:32;11.30;99.90
53802;DHT22;39709;53.334;6.534;2023-05-07T06:59:02;11.30;99.90
53802;DHT22;39709;53.334;6.534;2023-05-07T07:01:28;11.60;99.90
53802;DHT22;39709;53.334;6.534;2023-05-07T07:03:54;11.60;99.90
53802;DHT22;39709;53.334;6.534;2023-05-07T07:06:20;11.30;99.90
53802;DHT22;39709;53.334;6.534;2023-05-07T07:08:46;11.30;99.90
53802;DHT22;39709;53.334;6.534;2023-05-07T07:11:12;11.10;99.90
53802;DHT22;39709;53.334;6.534;2023-05-07T07:13:37;11.10;99.90
53802;DHT22;39709;53.334;6.534;2023-05-07T07:16:03;11.00;99.90
53802;DHT22;39709;53.334;6.534;2023-05-07T07:18:29;11.00;99.90
53802;DHT22;39709;53.334;6.534;2023-05-07T07:20:55;11.10;99.90
53802;DHT22;39709;53.334;6.534;2023-05-07T07:23:20;11.10;99.90
53802;DHT22;39709;53.334;6.534;2023-05-07T07:25:46;11.10;99.90
53802;DHT22;39709;53.334;6.534;2023-05-07T07:28:12;11.00;99.90
53802;DHT22;39709;53.334;6.534;2023-05-07T07:30:38;10.90;99.90
53802;DHT22;39709;53.334;6.534;2023-05-07T07:33:05;11.00;99.90
53802;DHT22;39709;53.334;6.534;2023-05-07T07:35:31;11.10;99.90
53802;DHT22;39709;53.334;6.534;2023-05-07T07:37:57;11.20;99.90
53802;DHT22;39709;53.334;6.534;2023-05-07T07:40:23;11.30;99.90
53802;DHT22;39709;53.334;6.534;2023-05-07T07:42:53;11.40;99.90
53802;DHT22;39709;53.334;6.534;2023-05-07T07:45:19;11.30;99.90
53802;DHT22;39709;53.334;6.534;2023-05-07T07:47:45;11.40;99.90
53802;DHT22;39709;53.334;6.534;2023-05-07T07:50:11;11.40;99.90
53802;DHT22;39709;53.334;6.534;2023-05-07T07:52:36;11.30;99.90
53802;DHT22;39709;53.334;6.534;2023-05-07T07:55:02;11.30;99.90
53802;DHT22;39709;53.334;6.534;2023-05-07T07:57:28;11.00;99.90
53802;DHT22;39709;53.334;6.534;2023-05-07T07:59:54;11.40;99.90
53802;DHT22;39709;53.334;6.534;2023-05-07T08:02:20;11.50;99.90
53802;DHT22;39709;53.334;6.534;2023-05-07T08:04:45;11.60;99.90
53802;DHT22;39709;53.334;6.534;2023-05-07T08:07:11;11.40;99.90
53802;DHT22;39709;53.334;6.534;2023-05-07T08:09:38;11.60;99.90
53802;DHT22;39709;53.334;6.534;2023-05-07T08:12:04;11.70;99.90
53802;DHT22;39709;53.334;6.534;2023-05-07T08:14:30;11.50;99.90
53802;DHT22;39709;53.334;6.534;2023-05-07T08:16:56;11.50;99.90
53802;DHT22;39709;53.334;6.534;2023-05-07T08:19:22;11.70;99.90
53802;DHT22;39709;53.334;6.534;2023-05-07T08:21:48;11.70;99.90
53802;DHT22;39709;53.334;6.534;2023-05-07T08:24:14;11.80;96.30
53802;DHT22;39709;53.334;6.534;2023-05-07T08:26:40;12.00;77.70
53802;DHT22;39709;53.334;6.534;2023-05-07T08:29:06;11.90;92.50
53802;DHT22;39709;53.334;6.534;2023-05-07T08:31:32;12.10;60.20
53802;DHT22;39709;53.334;6.534;2023-05-07T08:33:58;12.10;59.10
53802;DHT22;39709;53.334;6.534;2023-05-07T08:36:24;12.30;33.20
53802;DHT22;39709;53.334;6.534;2023-05-07T08:38:51;12.50;23.80
53802;DHT22;39709;53.334;6.534;2023-05-07T08:41:17;12.40;29.50
53802;DHT22;39709;53.334;6.534;2023-05-07T08:43:48;12.60;21.20
53802;DHT22;39709;53.334;6.534;2023-05-07T08:46:20;12.70;17.20
53802;DHT22;39709;53.334;6.534;2023-05-07T08:48:50;12.90;1.00
53802;DHT22;39709;53.334;6.534;2023-05-07T08:51:18;13.10;1.00
53802;DHT22;39709;53.334;6.534;2023-05-07T08:53:47;13.30;1.00
53802;DHT22;39709;53.334;6.534;2023-05-07T08:56:17;13.40;1.00
53802;DHT22;39709;53.334;6.534;2023-05-07T08:58:43;13.60;1.00
53802;DHT22;39709;53.334;6.534;2023-05-07T09:01:13;13.40;1.00
53802;DHT22;39709;53.334;6.534;2023-05-07T09:03:39;13.60;1.00
53802;DHT22;39709;53.334;6.534;2023-05-07T09:06:05;13.60;1.00
53802;DHT22;39709;53.334;6.534;2023-05-07T09:08:33;13.40;1.00
53802;DHT22;39709;53.334;6.534;2023-05-07T09:10:59;13.70;1.00
53802;DHT22;39709;53.334;6.534;2023-05-07T09:13:26;13.20;1.00
53802;DHT22;39709;53.334;6.534;2023-05-07T09:15:52;13.30;1.00
53802;DHT22;39709;53.334;6.534;2023-05-07T09:18:18;13.70;1.00
53802;DHT22;39709;53.334;6.534;2023-05-07T09:20:44;13.80;1.00
53802;DHT22;39709;53.334;6.534;2023-05-07T09:23:10;14.00;1.00
53802;DHT22;39709;53.334;6.534;2023-05-07T09:25:37;14.20;1.00
53802;DHT22;39709;53.334;6.534;2023-05-07T09:28:04;13.70;1.00
53802;DHT22;39709;53.334;6.534;2023-05-07T09:30:33;13.50;1.00
53802;DHT22;39709;53.334;6.534;2023-05-07T09:33:01;13.40;1.00
53802;DHT22;39709;53.334;6.534;2023-05-07T09:35:28;13.80;1.00
53802;DHT22;39709;53.334;6.534;2023-05-07T09:37:55;14.10;1.00
53802;DHT22;39709;53.334;6.534;2023-05-07T09:40:26;14.00;1.00
53802;DHT22;39709;53.334;6.534;2023-05-07T09:42:51;14.00;1.00
53802;DHT22;39709;53.334;6.534;2023-05-07T09:45:28;14.10;1.00
53802;DHT22;39709;53.334;6.534;2023-05-07T09:47:55;14.20;1.00
53802;DHT22;39709;53.334;6.534;2023-05-07T09:50:30;13.90;1.00
53802;DHT22;39709;53.334;6.534;2023-05-07T09:52:58;14.10;1.00
53802;DHT22;39709;53.334;6.534;2023-05-07T09:55:24;14.30;1.00
53802;DHT22;39709;53.334;6.534;2023-05-07T09:57:51;14.50;1.00
53802;DHT22;39709;53.334;6.534;2023-05-07T10:00:19;14.50;1.00
53802;DHT22;39709;53.334;6.534;2023-05-07T10:02:50;14.50;1.00
53802;DHT22;39709;53.334;6.534;2023-05-07T10:05:19;14.70;1.00
53802;DHT22;39709;53.334;6.534;2023-05-07T10:07:46;15.10;1.00
53802;DHT22;39709;53.334;6.534;2023-05-07T10:10:12;15.20;1.00
53802;DHT22;39709;53.334;6.534;2023-05-07T10:12:40;15.30;1.00
53802;DHT22;39709;53.334;6.534;2023-05-07T10:15:10;15.40;1.00
53802;DHT22;39709;53.334;6.534;2023-05-07T10:17:39;15.60;1.00
53802;DHT22;39709;53.334;6.534;2023-05-07T10:20:06;15.50;1.00
53802;DHT22;39709;53.334;6.534;2023-05-07T10:22:44;15.50;1.00
53802;DHT22;39709;53.334;6.534;2023-05-07T10:25:23;15.20;1.00
53802;DHT22;39709;53.334;6.534;2023-05-07T10:27:51;14.90;1.00
53802;DHT22;39709;53.334;6.534;2023-05-07T10:33:17;15.20;1.00
53802;DHT22;39709;53.334;6.534;2023-05-07T10:35:47;15.60;1.00
53802;DHT22;39709;53.334;6.534;2023-05-07T10:38:13;15.30;1.00
53802;DHT22;39709;53.334;6.534;2023-05-07T10:40:39;15.10;1.00
53802;DHT22;39709;53.334;6.534;2023-05-07T10:43:06;15.80;1.00
53802;DHT22;39709;53.334;6.534;2023-05-07T10:45:32;15.60;1.00
53802;DHT22;39709;53.334;6.534;2023-05-07T10:50:34;15.90;1.00
53802;DHT22;39709;53.334;6.534;2023-05-07T10:55:48;16.30;1.00
53802;DHT22;39709;53.334;6.534;2023-05-07T11:00:55;15.60;1.00
53802;DHT22;39709;53.334;6.534;2023-05-07T11:03:21;15.90;1.00
53802;DHT22;39709;53.334;6.534;2023-05-07T11:05:47;16.50;99.90
53802;DHT22;39709;53.334;6.534;2023-05-07T11:11:17;16.40;1.00
53802;DHT22;39709;53.334;6.534;2023-05-07T11:13:47;16.50;1.00
53802;DHT22;39709;53.334;6.534;2023-05-07T11:16:20;16.50;1.00
53802;DHT22;39709;53.334;6.534;2023-05-07T11:18:52;16.60;1.00
53802;DHT22;39709;53.334;6.534;2023-05-07T11:21:41;16.80;1.00
53802;DHT22;39709;53.334;6.534;2023-05-07T11:24:10;16.80;1.00
53802;DHT22;39709;53.334;6.534;2023-05-07T11:26:49;16.80;1.00
53802;DHT22;39709;53.334;6.534;2023-05-07T11:29:20;17.20;99.90
53802;DHT22;39709;53.334;6.534;2023-05-07T11:31:50;17.30;99.90
53802;DHT22;39709;53.334;6.534;2023-05-07T11:34:21;17.10;99.90
53802;DHT22;39709;53.334;6.534;2023-05-07T11:36:49;17.30;99.90
53802;DHT22;39709;53.334;6.534;2023-05-07T11:39:32;17.40;99.90
53802;DHT22;39709;53.334;6.534;2023-05-07T11:42:01;17.40;99.90
53802;DHT22;39709;53.334;6.534;2023-05-07T11:44:47;17.50;99.90
53802;DHT22;39709;53.334;6.534;2023-05-07T11:47:18;17.40;99.90
53802;DHT22;39709;53.334;6.534;2023-05-07T11:49:50;17.20;99.90
53802;DHT22;39709;53.334;6.534;2023-05-07T11:52:16;17.20;99.90
53802;DHT22;39709;53.334;6.534;2023-05-07T11:54:52;17.30;99.90
53802;DHT22;39709;53.334;6.534;2023-05-07T11:57:18;16.70;1.00
53802;DHT22;39709;53.334;6.534;2023-05-07T11:59:44;17.00;99.90
53802;DHT22;39709;53.334;6.534;2023-05-07T12:02:10;17.30;99.90
53802;DHT22;39709;53.334;6.534;2023-05-07T12:04:37;17.00;1.00
53802;DHT22;39709;53.334;6.534;2023-05-07T12:07:03;16.50;1.00
53802;DHT22;39709;53.334;6.534;2023-05-07T12:09:29;16.80;1.00
53802;DHT22;39709;53.334;6.534;2023-05-07T12:11:55;17.00;1.00
53802;DHT22;39709;53.334;6.534;2023-05-07T12:14:21;17.20;1.00
53802;DHT22;39709;53.334;6.534;2023-05-07T12:16:47;17.60;99.90
53802;DHT22;39709;53.334;6.534;2023-05-07T12:19:13;17.90;99.90
53802;DHT22;39709;53.334;6.534;2023-05-07T12:21:40;18.10;99.90
53802;DHT22;39709;53.334;6.534;2023-05-07T12:24:06;17.90;99.90
53802;DHT22;39709;53.334;6.534;2023-05-07T12:26:40;17.90;99.90
53802;DHT22;39709;53.334;6.534;2023-05-07T12:29:06;17.20;99.90
53802;DHT22;39709;53.334;6.534;2023-05-07T12:31:32;17.30;1.00
53802;DHT22;39709;53.334;6.534;2023-05-07T12:33:58;17.20;1.00
53802;DHT22;39709;53.334;6.534;2023-05-07T12:36:23;17.10;1.00
53802;DHT22;39709;53.334;6.534;2023-05-07T12:38:50;17.30;1.00
53802;DHT22;39709;53.334;6.534;2023-05-07T12:41:16;17.70;99.90
53802;DHT22;39709;53.334;6.534;2023-05-07T12:43:44;18.00;99.90
53802;DHT22;39709;53.334;6.534;2023-05-07T12:46:11;18.20;99.90
53802;DHT22;39709;53.334;6.534;2023-05-07T12:48:44;18.20;99.90
53802;DHT22;39709;53.334;6.534;2023-05-07T12:51:11;18.00;99.90
53802;DHT22;39709;53.334;6.534;2023-05-07T12:53:42;18.20;99.90
53802;DHT22;39709;53.334;6.534;2023-05-07T12:56:08;18.10;99.90
53802;DHT22;39709;53.334;6.534;2023-05-07T12:58:35;18.00;99.90
53802;DHT22;39709;53.334;6.534;2023-05-07T13:01:06;18.10;99.90
53802;DHT22;39709;53.334;6.534;2023-05-07T13:03:34;18.10;99.90
53802;DHT22;39709;53.334;6.534;2023-05-07T13:06:08;17.80;1.00
53802;DHT22;39709;53.334;6.534;2023-05-07T13:08:39;17.90;99.90
53802;DHT22;39709;53.334;6.534;2023-05-07T13:11:08;18.20;99.90
53802;DHT22;39709;53.334;6.534;2023-05-07T13:13:36;17.90;99.90
53802;DHT22;39709;53.334;6.534;2023-05-07T13:16:03;17.90;99.90
53802;DHT22;39709;53.334;6.534;2023-05-07T13:18:30;17.90;99.90
53802;DHT22;39709;53.334;6.534;2023-05-07T13:20:56;17.80;1.00
53802;DHT22;39709;53.334;6.534;2023-05-07T13:23:22;18.10;99.90
53802;DHT22;39709;53.334;6.534;2023-05-07T13:25:49;17.70;99.90
53802;DHT22;39709;53.334;6.534;2023-05-07T13:28:15;18.00;99.90
53802;DHT22;39709;53.334;6.534;2023-05-07T13:30:40;18.20;99.90
53802;DHT22;39709;53.334;6.534;2023-05-07T13:33:06;18.40;99.90
53802;DHT22;39709;53.334;6.534;2023-05-07T13:35:32;18.20;99.90
53802;DHT22;39709;53.334;6.534;2023-05-07T13:37:58;18.00;1.00
53802;DHT22;39709;53.334;6.534;2023-05-07T13:40:24;18.00;99.90
53802;DHT22;39709;53.334;6.534;2023-05-07T13:42:50;18.00;1.00
53802;DHT22;39709;53.334;6.534;2023-05-07T13:45:19;18.60;99.90
53802;DHT22;39709;53.334;6.534;2023-05-07T13:47:46;18.80;99.90
53802;DHT22;39709;53.334;6.534;2023-05-07T13:50:12;19.20;99.90
53802;DHT22;39709;53.334;6.534;2023-05-07T13:52:41;18.90;99.90
53802;DHT22;39709;53.334;6.534;2023-05-07T13:55:09;18.90;99.90
53802;DHT22;39709;53.334;6.534;2023-05-07T13:57:34;18.60;99.90
53802;DHT22;39709;53.334;6.534;2023-05-07T14:00:00;18.40;99.90
53802;DHT22;39709;53.334;6.534;2023-05-07T14:02:26;18.40;99.90
53802;DHT22;39709;53.334;6.534;2023-05-07T14:04:51;18.40;99.90
53802;DHT22;39709;53.334;6.534;2023-05-07T14:07:17;18.50;99.90
53802;DHT22;39709;53.334;6.534;2023-05-07T14:09:43;19.10;99.90
53802;DHT22;39709;53.334;6.534;2023-05-07T14:12:10;19.20;99.90
53802;DHT22;39709;53.334;6.534;2023-05-07T14:14:36;19.00;99.90
53802;DHT22;39709;53.334;6.534;2023-05-07T14:17:02;19.10;99.90
53802;DHT22;39709;53.334;6.534;2023-05-07T14:19:27;18.80;99.90
53802;DHT22;39709;53.334;6.534;2023-05-07T14:21:53;19.00;99.90
53802;DHT22;39709;53.334;6.534;2023-05-07T14:24:18;19.00;99.90
53802;DHT22;39709;53.334;6.534;2023-05-07T14:26:44;18.90;99.90
53802;DHT22;39709;53.334;6.534;2023-05-07T14:29:10;18.70;99.90
53802;DHT22;39709;53.334;6.534;2023-05-07T14:31:36;18.90;99.90
53802;DHT22;39709;53.334;6.534;2023-05-07T14:34:02;19.10;99.90
53802;DHT22;39709;53.334;6.534;2023-05-07T14:36:27;19.40;99.90
53802;DHT22;39709;53.334;6.534;2023-05-07T14:38:53;19.40;99.90
53802;DHT22;39709;53.334;6.534;2023-05-07T14:41:21;19.40;99.90
53802;DHT22;39709;53.334;6.534;2023-05-07T14:43:47;19.40;99.90
53802;DHT22;39709;53.334;6.534;2023-05-07T14:46:16;19.40;99.90
53802;DHT22;39709;53.334;6.534;2023-05-07T14:48:46;19.50;99.90
53802;DHT22;39709;53.334;6.534;2023-05-07T14:51:13;19.30;99.90
53802;DHT22;39709;53.334;6.534;2023-05-07T14:53:41;19.40;99.90
53802;DHT22;39709;53.334;6.534;2023-05-07T14:56:07;19.30;99.90
53802;DHT22;39709;53.334;6.534;2023-05-07T14:58:33;19.40;99.90
53802;DHT22;39709;53.334;6.534;2023-05-07T15:01:00;19.30;99.90
53802;DHT22;39709;53.334;6.534;2023-05-07T15:03:27;19.50;99.90
53802;DHT22;39709;53.334;6.534;2023-05-07T15:05:53;19.80;99.90
53802;DHT22;39709;53.334;6.534;2023-05-07T15:08:19;20.10;99.90
53802;DHT22;39709;53.334;6.534;2023-05-07T15:10:45;20.20;99.90
53802;DHT22;39709;53.334;6.534;2023-05-07T15:13:12;20.20;99.90
53802;DHT22;39709;53.334;6.534;2023-05-07T15:15:41;20.10;99.90
53802;DHT22;39709;53.334;6.534;2023-05-07T15:18:08;20.00;99.90
53802;DHT22;39709;53.334;6.534;2023-05-07T15:20:33;20.00;99.90
53802;DHT22;39709;53.334;6.534;2023-05-07T15:22:59;20.10;99.90
53802;DHT22;39709;53.334;6.534;2023-05-07T15:25:24;20.20;99.90
53802;DHT22;39709;53.334;6.534;2023-05-07T15:27:50;20.20;99.90
53802;DHT22;39709;53.334;6.534;2023-05-07T15:30:17;20.00;99.90
53802;DHT22;39709;53.334;6.534;2023-05-07T15:32:42;20.40;99.90
53802;DHT22;39709;53.334;6.534;2023-05-07T15:35:09;20.50;99.90
53802;DHT22;39709;53.334;6.534;2023-05-07T15:37:35;20.70;99.90
53802;DHT22;39709;53.334;6.534;2023-05-07T15:40:00;20.30;99.90
53802;DHT22;39709;53.334;6.534;2023-05-07T15:42:28;20.90;99.90
53802;DHT22;39709;53.334;6.534;2023-05-07T15:44:54;21.30;99.90
53802;DHT22;39709;53.334;6.534;2023-05-07T15:47:21;21.40;99.90